sensor_id;sensor_type;location;lat;lon;timestamp;temperature;humidity
1461;DHT22;724;49.910;12.530;2023-07-30T00:00:25;13.50;99.90
1461;DHT22;724;49.910;12.530;2023-07-30T00:02:52;13.50;99.90
1461;DHT22;724;49.910;12.530;2023-07-30T00:05:18;13.50;99.90
1461;DHT22;724;49.910;12.530;2023-07-30T00:07:45;13.50;99.90
1461;DHT22;724;49.910;12.530;2023-07-30T00:10:12;13.50;99.90
1461;DHT22;724;49.910;12.530;2023-07-30T00:12:40;13.40;99.90
1461;DHT22;724;49.910;12.530;2023-07-30T00:15:08;13.30;99.90
1461;DHT22;724;49.910;12.530;2023-07-30T00:17:34;13.20;99.90
1461;DHT22;724;49.910;12.530;2023-07-30T00:20:01;13.20;99.90
1461;DHT22;724;49.910;12.530;2023-07-30T00:22:28;13.20;99.90
1461;DHT22;724;49.910;12.530;2023-07-30T00:24:55;13.30;99.90
1461;DHT22;724;49.910;12.530;2023-07-30T00:27:22;13.30;99.90
1461;DHT22;724;49.910;12.530;2023-07-30T00:29:50;13.30;99.90
1461;DHT22;724;49.910;12.530;2023-07-30T00:32:17;13.20;99.90
1461;DHT22;724;49.910;12.530;2023-07-30T00:34:44;13.10;99.90
1461;DHT22;724;49.910;12.530;2023-07-30T00:37:10;13.20;99.90
1461;DHT22;724;49.910;12.530;2023-07-30T00:39:37;13.10;99.90
1461;DHT22;724;49.910;12.530;2023-07-30T00:42:04;13.10;99.90
1461;DHT22;724;49.910;12.530;2023-07-30T00:44:31;13.00;99.90
1461;DHT22;724;49.910;12.530;2023-07-30T00:46:59;13.00;99.90
1461;DHT22;724;49.910;12.530;2023-07-30T00:49:26;13.00;99.90
1461;DHT22;724;49.910;12.530;2023-07-30T00:51:54;13.10;99.90
1461;DHT22;724;49.910;12.530;2023-07-30T00:54:22;13.10;99.90
1461;DHT22;724;49.910;12.530;2023-07-30T00:56:51;13.10;99.90
1461;DHT22;724;49.910;12.530;2023-07-30T00:59:19;13.00;99.90
1461;DHT22;724;49.910;12.530;2023-07-30T01:01:47;13.00;99.90
1461;DHT22;724;49.910;12.530;2023-07-30T01:04:15;13.00;99.90
1461;DHT22;724;49.910;12.530;2023-07-30T01:06:42;12.90;99.90
1461;DHT22;724;49.910;12.530;2023-07-30T01:09:10;12.80;99.90
1461;DHT22;724;49.910;12.530;2023-07-30T01:11:37;12.80;99.90
1461;DHT22;724;49.910;12.530;2023-07-30T01:14:05;12.70;99.90
1461;DHT22;724;49.910;12.530;2023-07-30T01:16:32;12.80;99.90
1461;DHT22;724;49.910;12.530;2023-07-30T01:18:59;12.80;99.90
1461;DHT22;724;49.910;12.530;2023-07-30T01:21:31;12.90;99.90
1461;DHT22;724;49.910;12.530;2023-07-30T01:23:58;12.90;99.90
1461;DHT22;724;49.910;12.530;2023-07-30T01:26:29;12.80;99.90
1461;DHT22;724;49.910;12.530;2023-07-30T01:29:00;13.00;99.90
1461;DHT22;724;49.910;12.530;2023-07-30T01:31:30;13.20;99.90
1461;DHT22;724;49.910;12.530;2023-07-30T01:33:59;13.50;99.90
1461;DHT22;724;49.910;12.530;2023-07-30T01:36:29;13.60;99.90
1461;DHT22;724;49.910;12.530;2023-07-30T01:38:58;13.80;99.90
1461;DHT22;724;49.910;12.530;2023-07-30T01:41:25;14.00;99.90
1461;DHT22;724;49.910;12.530;2023-07-30T01:43:53;14.20;99.90
1461;DHT22;724;49.910;12.530;2023-07-30T01:46:19;14.30;99.90
1461;DHT22;724;49.910;12.530;2023-07-30T01:48:46;14.50;99.90
1461;DHT22;724;49.910;12.530;2023-07-30T01:51:13;14.60;99.90
1461;DHT22;724;49.910;12.530;2023-07-30T01:53:40;14.60;99.90
1461;DHT22;724;49.910;12.530;2023-07-30T01:56:08;14.60;99.90
1461;DHT22;724;49.910;12.530;2023-07-30T01:58:35;14.60;99.90
1461;DHT22;724;49.910;12.530;2023-07-30T02:01:01;14.60;99.90
1461;DHT22;724;49.910;12.530;2023-07-30T02:03:28;14.60;99.90
1461;DHT22;724;49.910;12.530;2023-07-30T02:05:55;14.60;99.90
1461;DHT22;724;49.910;12.530;2023-07-30T02:08:21;14.60;99.90
1461;DHT22;724;49.910;12.530;2023-07-30T02:10:55;14.60;99.90
1461;DHT22;724;49.910;12.530;2023-07-30T02:13:23;14.60;99.90
1461;DHT22;724;49.910;12.530;2023-07-30T02:15:50;14.60;99.90
1461;DHT22;724;49.910;12.530;2023-07-30T02:18:17;14.70;99.90
1461;DHT22;724;49.910;12.530;2023-07-30T02:20:43;14.70;99.90
1461;DHT22;724;49.910;12.530;2023-07-30T02:23:10;14.70;99.90
1461;DHT22;724;49.910;12.530;2023-07-30T02:25:37;14.70;99.90
1461;DHT22;724;49.910;12.530;2023-07-30T02:28:05;14.70;99.90
1461;DHT22;724;49.910;12.530;2023-07-30T02:30:34;14.70;99.90
1461;DHT22;724;49.910;12.530;2023-07-30T02:33:01;14.80;99.90
1461;DHT22;724;49.910;12.530;2023-07-30T02:35:28;14.80;99.90
1461;DHT22;724;49.910;12.530;2023-07-30T02:37:55;14.80;99.90
1461;DHT22;724;49.910;12.530;2023-07-30T02:40:21;14.70;99.90
1461;DHT22;724;49.910;12.530;2023-07-30T02:42:48;14.70;99.90
1461;DHT22;724;49.910;12.530;2023-07-30T02:45:15;14.70;99.90
1461;DHT22;724;49.910;12.530;2023-07-30T02:47:43;14.70;99.90
1461;DHT22;724;49.910;12.530;2023-07-30T02:50:10;14.80;99.90
1461;DHT22;724;49.910;12.530;2023-07-30T02:52:37;14.80;99.90
1461;DHT22;724;49.910;12.530;2023-07-30T02:55:04;14.80;99.90
1461;DHT22;724;49.910;12.530;2023-07-30T02:57:31;14.80;99.90
1461;DHT22;724;49.910;12.530;2023-07-30T02:59:58;14.90;99.90
1461;DHT22;724;49.910;12.530;2023-07-30T03:02:25;14.90;99.90
1461;DHT22;724;49.910;12.530;2023-07-30T03:04:53;14.90;99.90
1461;DHT22;724;49.910;12.530;2023-07-30T03:07:19;14.90;99.90
1461;DHT22;724;49.910;12.530;2023-07-30T03:09:46;14.90;99.90
1461;DHT22;724;49.910;12.530;2023-07-30T03:12:13;14.90;99.90
1461;DHT22;724;49.910;12.530;2023-07-30T03:14:40;14.90;99.90
1461;DHT22;724;49.910;12.530;2023-07-30T03:17:07;14.90;99.90
1461;DHT22;724;49.910;12.530;2023-07-30T03:19:33;14.90;99.90
1461;DHT22;724;49.910;12.530;2023-07-30T03:22:01;14.90;99.90
1461;DHT22;724;49.910;12.530;2023-07-30T03:24:28;14.90;99.90
1461;DHT22;724;49.910;12.530;2023-07-30T03:26:55;14.90;99.90
1461;DHT22;724;49.910;12.530;2023-07-30T03:29:22;14.90;99.90
1461;DHT22;724;49.910;12.530;2023-07-30T03:31:49;14.90;99.90
1461;DHT22;724;49.910;12.530;2023-07-30T03:34:15;15.00;99.90
1461;DHT22;724;49.910;12.530;2023-07-30T03:36:42;15.00;99.90
1461;DHT22;724;49.910;12.530;2023-07-30T03:39:10;15.00;99.90
1461;DHT22;724;49.910;12.530;2023-07-30T03:41:37;15.00;99.90
1461;DHT22;724;49.910;12.530;2023-07-30T03:44:04;15.00;99.90
1461;DHT22;724;49.910;12.530;2023-07-30T03:46:31;15.10;99.90
1461;DHT22;724;49.910;12.530;2023-07-30T03:48:57;15.10;99.90
1461;DHT22;724;49.910;12.530;2023-07-30T03:51:24;15.20;99.90
1461;DHT22;724;49.910;12.530;2023-07-30T03:53:51;15.20;99.90
1461;DHT22;724;49.910;12.530;2023-07-30T03:56:19;15.10;99.90
1461;DHT22;724;49.910;12.530;2023-07-30T03:58:46;15.20;99.90
1461;DHT22;724;49.910;12.530;2023-07-30T04:01:12;15.10;99.90
1461;DHT22;724;49.910;12.530;2023-07-30T04:03:39;15.10;99.90
1461;DHT22;724;49.910;12.530;2023-07-30T04:06:06;15.10;99.90
1461;DHT22;724;49.910;12.530;2023-07-30T04:08:32;15.00;99.90
1461;DHT22;724;49.910;12.530;2023-07-30T04:10:59;15.10;99.90
1461;DHT22;724;49.910;12.530;2023-07-30T04:13:28;15.00;99.90
1461;DHT22;724;49.910;12.530;2023-07-30T04:15:55;15.00;99.90
1461;DHT22;724;49.910;12.530;2023-07-30T04:18:22;15.00;99.90
1461;DHT22;724;49.910;12.530;2023-07-30T04:20:48;15.10;99.90
1461;DHT22;724;49.910;12.530;2023-07-30T04:23:15;15.10;99.90
1461;DHT22;724;49.910;12.530;2023-07-30T04:25:42;15.10;99.90
1461;DHT22;724;49.910;12.530;2023-07-30T04:28:09;15.20;99.90
1461;DHT22;724;49.910;12.530;2023-07-30T04:30:37;15.20;99.90
1461;DHT22;724;49.910;12.530;2023-07-30T04:33:04;15.20;99.90
1461;DHT22;724;49.910;12.530;2023-07-30T04:35:30;15.20;99.90
1461;DHT22;724;49.910;12.530;2023-07-30T04:37:57;15.20;99.90
1461;DHT22;724;49.910;12.530;2023-07-30T04:40:24;15.20;99.90
1461;DHT22;724;49.910;12.530;2023-07-30T04:42:51;15.20;99.90
1461;DHT22;724;49.910;12.530;2023-07-30T04:45:18;15.30;99.90
1461;DHT22;724;49.910;12.530;2023-07-30T04:47:46;15.30;99.90
1461;DHT22;724;49.910;12.530;2023-07-30T04:50:13;15.30;99.90
1461;DHT22;724;49.910;12.530;2023-07-30T04:52:39;15.30;99.90
1461;DHT22;724;49.910;12.530;2023-07-30T04:55:07;15.30;99.90
1461;DHT22;724;49.910;12.530;2023-07-30T04:57:34;15.30;99.90
1461;DHT22;724;49.910;12.530;2023-07-30T05:00:01;15.30;99.90
1461;DHT22;724;49.910;12.530;2023-07-30T05:02:28;15.30;99.90
1461;DHT22;724;49.910;12.530;2023-07-30T05:04:56;15.30;99.90
1461;DHT22;724;49.910;12.530;2023-07-30T05:07:23;15.30;99.90
1461;DHT22;724;49.910;12.530;2023-07-30T05:09:50;15.30;99.90
1461;DHT22;724;49.910;12.530;2023-07-30T05:12:16;15.30;99.90
1461;DHT22;724;49.910;12.530;2023-07-30T05:14:43;15.30;99.90
1461;DHT22;724;49.910;12.530;2023-07-30T05:17:10;15.20;99.90
1461;DHT22;724;49.910;12.530;2023-07-30T05:19:36;15.20;99.90
1461;DHT22;724;49.910;12.530;2023-07-30T05:22:05;15.20;99.90
1461;DHT22;724;49.910;12.530;2023-07-30T05:24:33;15.20;99.90
1461;DHT22;724;49.910;12.530;2023-07-30T05:27:02;15.20;99.90
1461;DHT22;724;49.910;12.530;2023-07-30T05:29:29;15.20;99.90
1461;DHT22;724;49.910;12.530;2023-07-30T05:31:56;15.20;99.90
1461;DHT22;724;49.910;12.530;2023-07-30T05:34:22;15.20;99.90
1461;DHT22;724;49.910;12.530;2023-07-30T05:36:49;15.20;99.90
1461;DHT22;724;49.910;12.530;2023-07-30T05:39:20;15.20;99.90
1461;DHT22;724;49.910;12.530;2023-07-30T05:41:47;15.20;99.90
1461;DHT22;724;49.910;12.530;2023-07-30T05:44:14;15.20;99.90
1461;DHT22;724;49.910;12.530;2023-07-30T05:46:41;15.20;99.90
1461;DHT22;724;49.910;12.530;2023-07-30T05:49:07;15.30;99.90
1461;DHT22;724;49.910;12.530;2023-07-30T05:51:34;15.20;99.90
1461;DHT22;724;49.910;12.530;2023-07-30T05:54:01;15.20;99.90
1461;DHT22;724;49.910;12.530;2023-07-30T05:56:29;15.10;99.90
1461;DHT22;724;49.910;12.530;2023-07-30T05:58:56;15.20;99.90
1461;DHT22;724;49.910;12.530;2023-07-30T06:01:23;15.20;99.90
1461;DHT22;724;49.910;12.530;2023-07-30T06:03:49;15.30;99.90
1461;DHT22;724;49.910;12.530;2023-07-30T06:06:17;15.30;99.90
1461;DHT22;724;49.910;12.530;2023-07-30T06:08:45;15.40;99.90
1461;DHT22;724;49.910;12.530;2023-07-30T06:11:11;15.50;99.90
1461;DHT22;724;49.910;12.530;2023-07-30T06:13:40;15.50;99.90
1461;DHT22;724;49.910;12.530;2023-07-30T06:16:06;15.60;99.90
1461;DHT22;724;49.910;12.530;2023-07-30T06:18:33;15.60;99.90
1461;DHT22;724;49.910;12.530;2023-07-30T06:21:00;15.60;99.90
1461;DHT22;724;49.910;12.530;2023-07-30T06:23:27;15.70;99.90
1461;DHT22;724;49.910;12.530;2023-07-30T06:25:53;15.70;99.90
1461;DHT22;724;49.910;12.530;2023-07-30T06:28:20;15.70;99.90
1461;DHT22;724;49.910;12.530;2023-07-30T06:30:48;15.80;99.90
1461;DHT22;724;49.910;12.530;2023-07-30T06:33:15;15.90;99.90
1461;DHT22;724;49.910;12.530;2023-07-30T06:35:41;16.00;99.90
1461;DHT22;724;49.910;12.530;2023-07-30T06:38:09;16.00;99.90
1461;DHT22;724;49.910;12.530;2023-07-30T06:40:35;16.10;99.90
1461;DHT22;724;49.910;12.530;2023-07-30T06:43:02;16.20;99.90
1461;DHT22;724;49.910;12.530;2023-07-30T06:45:29;16.20;99.90
1461;DHT22;724;49.910;12.530;2023-07-30T06:47:57;16.10;99.90
1461;DHT22;724;49.910;12.530;2023-07-30T06:50:24;16.00;99.90
1461;DHT22;724;49.910;12.530;2023-07-30T06:52:51;16.00;99.90
1461;DHT22;724;49.910;12.530;2023-07-30T06:55:18;16.20;99.90
1461;DHT22;724;49.910;12.530;2023-07-30T06:57:44;16.50;99.90
1461;DHT22;724;49.910;12.530;2023-07-30T07:00:12;16.70;99.90
1461;DHT22;724;49.910;12.530;2023-07-30T07:02:44;17.50;99.90
1461;DHT22;724;49.910;12.530;2023-07-30T07:05:12;17.60;99.90
1461;DHT22;724;49.910;12.530;2023-07-30T07:07:39;17.30;99.90
1461;DHT22;724;49.910;12.530;2023-07-30T07:10:07;17.10;99.90
1461;DHT22;724;49.910;12.530;2023-07-30T07:12:35;17.10;99.90
1461;DHT22;724;49.910;12.530;2023-07-30T07:15:03;16.90;99.90
1461;DHT22;724;49.910;12.530;2023-07-30T07:17:30;16.70;99.90
1461;DHT22;724;49.910;12.530;2023-07-30T07:19:57;16.60;99.90
1461;DHT22;724;49.910;12.530;2023-07-30T07:22:25;16.60;99.90
1461;DHT22;724;49.910;12.530;2023-07-30T07:24:52;16.70;99.90
1461;DHT22;724;49.910;12.530;2023-07-30T07:27:19;17.10;99.90
1461;DHT22;724;49.910;12.530;2023-07-30T07:29:46;17.20;99.90
1461;DHT22;724;49.910;12.530;2023-07-30T07:32:13;17.20;99.90
1461;DHT22;724;49.910;12.530;2023-07-30T07:34:40;17.20;99.90
1461;DHT22;724;49.910;12.530;2023-07-30T07:37:06;17.20;99.90
1461;DHT22;724;49.910;12.530;2023-07-30T07:39:34;17.20;99.90
1461;DHT22;724;49.910;12.530;2023-07-30T07:42:01;17.20;99.90
1461;DHT22;724;49.910;12.530;2023-07-30T07:44:28;17.30;99.90
1461;DHT22;724;49.910;12.530;2023-07-30T07:46:55;17.30;99.90
1461;DHT22;724;49.910;12.530;2023-07-30T07:49:21;17.30;99.90
1461;DHT22;724;49.910;12.530;2023-07-30T07:51:48;17.40;99.90
1461;DHT22;724;49.910;12.530;2023-07-30T07:54:15;17.40;99.90
1461;DHT22;724;49.910;12.530;2023-07-30T07:56:43;17.80;99.90
1461;DHT22;724;49.910;12.530;2023-07-30T07:59:10;18.40;1.00
1461;DHT22;724;49.910;12.530;2023-07-30T08:01:37;19.20;1.00
1461;DHT22;724;49.910;12.530;2023-07-30T08:04:04;19.40;1.00
1461;DHT22;724;49.910;12.530;2023-07-30T08:06:31;19.10;1.00
1461;DHT22;724;49.910;12.530;2023-07-30T08:08:58;18.70;1.00
1461;DHT22;724;49.910;12.530;2023-07-30T08:11:25;18.30;99.90
1461;DHT22;724;49.910;12.530;2023-07-30T08:13:53;18.30;99.90
1461;DHT22;724;49.910;12.530;2023-07-30T08:16:20;18.40;1.00
1461;DHT22;724;49.910;12.530;2023-07-30T08:18:47;18.40;1.00
1461;DHT22;724;49.910;12.530;2023-07-30T08:21:14;18.70;1.00
1461;DHT22;724;49.910;12.530;2023-07-30T08:23:43;19.30;99.90
1461;DHT22;724;49.910;12.530;2023-07-30T08:26:09;19.00;99.90
1461;DHT22;724;49.910;12.530;2023-07-30T08:28:36;18.60;99.90
1461;DHT22;724;49.910;12.530;2023-07-30T08:31:05;18.30;99.90
1461;DHT22;724;49.910;12.530;2023-07-30T08:33:32;18.10;1.00
1461;DHT22;724;49.910;12.530;2023-07-30T08:35:59;18.20;1.00
1461;DHT22;724;49.910;12.530;2023-07-30T08:38:26;18.50;1.00
1461;DHT22;724;49.910;12.530;2023-07-30T08:40:53;19.60;1.00
1461;DHT22;724;49.910;12.530;2023-07-30T08:43:19;21.00;1.00
1461;DHT22;724;49.910;12.530;2023-07-30T08:45:46;21.70;1.00
1461;DHT22;724;49.910;12.530;2023-07-30T08:48:14;21.90;1.00
1461;DHT22;724;49.910;12.530;2023-07-30T08:50:41;21.10;1.00
1461;DHT22;724;49.910;12.530;2023-07-30T08:53:09;21.40;1.00
1461;DHT22;724;49.910;12.530;2023-07-30T08:55:38;21.20;1.00
1461;DHT22;724;49.910;12.530;2023-07-30T08:58:05;20.10;1.00
1461;DHT22;724;49.910;12.530;2023-07-30T09:00:35;20.40;1.00
1461;DHT22;724;49.910;12.530;2023-07-30T09:03:04;20.90;1.00
1461;DHT22;724;49.910;12.530;2023-07-30T09:05:32;20.60;1.00
1461;DHT22;724;49.910;12.530;2023-07-30T09:07:59;20.80;1.00
1461;DHT22;724;49.910;12.530;2023-07-30T09:10:26;21.90;99.90
1461;DHT22;724;49.910;12.530;2023-07-30T09:12:55;21.80;99.90
1461;DHT22;724;49.910;12.530;2023-07-30T09:15:29;21.70;99.90
1461;DHT22;724;49.910;12.530;2023-07-30T09:17:57;22.30;99.90
1461;DHT22;724;49.910;12.530;2023-07-30T09:20:24;22.80;99.90
1461;DHT22;724;49.910;12.530;2023-07-30T09:22:56;23.40;61.90
1461;DHT22;724;49.910;12.530;2023-07-30T09:25:23;23.00;1.00
1461;DHT22;724;49.910;12.530;2023-07-30T09:27:50;22.50;1.00
1461;DHT22;724;49.910;12.530;2023-07-30T09:30:22;22.80;1.00
1461;DHT22;724;49.910;12.530;2023-07-30T09:32:52;22.50;1.00
1461;DHT22;724;49.910;12.530;2023-07-30T09:35:19;22.10;1.00
1461;DHT22;724;49.910;12.530;2023-07-30T09:37:47;22.00;1.00
1461;DHT22;724;49.910;12.530;2023-07-30T09:40:16;21.60;1.00
1461;DHT22;724;49.910;12.530;2023-07-30T09:42:45;21.30;1.00
1461;DHT22;724;49.910;12.530;2023-07-30T09:45:23;20.90;1.00
1461;DHT22;724;49.910;12.530;2023-07-30T09:47:51;21.00;1.00
1461;DHT22;724;49.910;12.530;2023-07-30T09:50:18;21.40;1.00
1461;DHT22;724;49.910;12.530;2023-07-30T09:52:46;22.00;1.00
1461;DHT22;724;49.910;12.530;2023-07-30T09:55:12;22.20;1.00
1461;DHT22;724;49.910;12.530;2023-07-30T09:57:40;23.10;1.00
1461;DHT22;724;49.910;12.530;2023-07-30T10:00:08;24.60;1.00
1461;DHT22;724;49.910;12.530;2023-07-30T10:02:38;24.60;1.00
1461;DHT22;724;49.910;12.530;2023-07-30T10:05:10;23.40;1.00
1461;DHT22;724;49.910;12.530;2023-07-30T10:07:42;22.90;1.00
1461;DHT22;724;49.910;12.530;2023-07-30T10:10:13;22.50;1.00
1461;DHT22;724;49.910;12.530;2023-07-30T10:12:42;22.20;1.00
1461;DHT22;724;49.910;12.530;2023-07-30T10:15:10;21.90;1.00
1461;DHT22;724;49.910;12.530;2023-07-30T10:17:36;21.40;1.00
1461;DHT22;724;49.910;12.530;2023-07-30T10:20:22;21.70;1.00
1461;DHT22;724;49.910;12.530;2023-07-30T10:22:53;21.50;1.00
1461;DHT22;724;49.910;12.530;2023-07-30T10:25:22;21.70;1.00
1461;DHT22;724;49.910;12.530;2023-07-30T10:27:54;21.80;1.00
1461;DHT22;724;49.910;12.530;2023-07-30T10:30:21;21.30;1.00
1461;DHT22;724;49.910;12.530;2023-07-30T10:33:02;21.00;1.00
1461;DHT22;724;49.910;12.530;2023-07-30T10:35:36;21.00;1.00
1461;DHT22;724;49.910;12.530;2023-07-30T10:38:18;20.80;1.00
1461;DHT22;724;49.910;12.530;2023-07-30T10:41:07;21.20;1.00
1461;DHT22;724;49.910;12.530;2023-07-30T10:43:37;20.80;1.00
1461;DHT22;724;49.910;12.530;2023-07-30T10:46:05;20.50;1.00
1461;DHT22;724;49.910;12.530;2023-07-30T10:48:36;20.60;1.00
1461;DHT22;724;49.910;12.530;2023-07-30T10:51:05;20.70;1.00
1461;DHT22;724;49.910;12.530;2023-07-30T10:53:32;21.10;1.00
1461;DHT22;724;49.910;12.530;2023-07-30T10:56:00;21.40;1.00
1461;DHT22;724;49.910;12.530;2023-07-30T10:58:28;21.30;1.00
1461;DHT22;724;49.910;12.530;2023-07-30T11:00:57;20.90;29.60
1461;DHT22;724;49.910;12.530;2023-07-30T11:03:25;20.70;1.00
1461;DHT22;724;49.910;12.530;2023-07-30T11:05:52;20.60;99.90
1461;DHT22;724;49.910;12.530;2023-07-30T11:08:21;20.70;98.90
1461;DHT22;724;49.910;12.530;2023-07-30T11:10:48;21.70;99.90
1461;DHT22;724;49.910;12.530;2023-07-30T11:13:14;21.90;25.80
1461;DHT22;724;49.910;12.530;2023-07-30T11:15:42;21.50;1.00
1461;DHT22;724;49.910;12.530;2023-07-30T11:18:11;21.10;1.00
1461;DHT22;724;49.910;12.530;2023-07-30T11:20:38;21.00;1.00
1461;DHT22;724;49.910;12.530;2023-07-30T11:23:21;21.40;1.00
1461;DHT22;724;49.910;12.530;2023-07-30T11:25:49;21.60;1.00
1461;DHT22;724;49.910;12.530;2023-07-30T11:28:27;22.30;1.00
1461;DHT22;724;49.910;12.530;2023-07-30T11:30:57;22.30;1.00
1461;DHT22;724;49.910;12.530;2023-07-30T11:33:29;22.00;1.00
1461;DHT22;724;49.910;12.530;2023-07-30T11:35:56;21.80;1.00
1461;DHT22;724;49.910;12.530;2023-07-30T11:38:24;22.20;1.00
1461;DHT22;724;49.910;12.530;2023-07-30T11:40:52;22.30;1.00
1461;DHT22;724;49.910;12.530;2023-07-30T11:43:19;22.60;1.00
1461;DHT22;724;49.910;12.530;2023-07-30T11:45:46;23.00;1.00
1461;DHT22;724;49.910;12.530;2023-07-30T11:48:13;22.80;1.00
1461;DHT22;724;49.910;12.530;2023-07-30T11:50:52;22.90;1.00
1461;DHT22;724;49.910;12.530;2023-07-30T11:53:19;22.30;1.00
1461;DHT22;724;49.910;12.530;2023-07-30T11:55:46;22.10;1.00
1461;DHT22;724;49.910;12.530;2023-07-30T11:58:13;22.10;1.00
1461;DHT22;724;49.910;12.530;2023-07-30T12:00:41;22.00;1.00
1461;DHT22;724;49.910;12.530;2023-07-30T12:03:10;21.70;1.00
1461;DHT22;724;49.910;12.530;2023-07-30T12:05:40;21.60;1.00
1461;DHT22;724;49.910;12.530;2023-07-30T12:08:16;22.00;1.00
1461;DHT22;724;49.910;12.530;2023-07-30T12:10:47;22.00;1.00
1461;DHT22;724;49.910;12.530;2023-07-30T12:13:19;22.20;1.00
1461;DHT22;724;49.910;12.530;2023-07-30T12:15:51;22.30;1.00
1461;DHT22;724;49.910;12.530;2023-07-30T12:18:18;22.20;1.00
1461;DHT22;724;49.910;12.530;2023-07-30T12:20:45;22.30;1.00
1461;DHT22;724;49.910;12.530;2023-07-30T12:23:11;22.40;1.00
1461;DHT22;724;49.910;12.530;2023-07-30T12:25:39;22.10;1.00
1461;DHT22;724;49.910;12.530;2023-07-30T12:28:06;21.90;1.00
1461;DHT22;724;49.910;12.530;2023-07-30T12:30:33;22.10;1.00
1461;DHT22;724;49.910;12.530;2023-07-30T12:33:02;22.00;1.00
1461;DHT22;724;49.910;12.530;2023-07-30T12:35:29;21.90;1.00
1461;DHT22;724;49.910;12.530;2023-07-30T12:37:55;21.40;1.00
1461;DHT22;724;49.910;12.530;2023-07-30T12:40:22;21.20;1.00
1461;DHT22;724;49.910;12.530;2023-07-30T12:42:51;21.30;1.00
1461;DHT22;724;49.910;12.530;2023-07-30T12:45:18;21.20;1.00
1461;DHT22;724;49.910;12.530;2023-07-30T12:47:45;20.80;1.00
1461;DHT22;724;49.910;12.530;2023-07-30T12:50:12;20.70;1.00
1461;DHT22;724;49.910;12.530;2023-07-30T12:52:39;20.50;1.00
1461;DHT22;724;49.910;12.530;2023-07-30T12:55:06;20.30;1.00
1461;DHT22;724;49.910;12.530;2023-07-30T12:57:33;20.10;1.00
1461;DHT22;724;49.910;12.530;2023-07-30T13:00:02;20.00;1.00
1461;DHT22;724;49.910;12.530;2023-07-30T13:02:30;19.90;1.00
1461;DHT22;724;49.910;12.530;2023-07-30T13:04:58;19.80;1.00
1461;DHT22;724;49.910;12.530;2023-07-30T13:07:25;19.60;1.00
1461;DHT22;724;49.910;12.530;2023-07-30T13:10:02;18.90;1.00
1461;DHT22;724;49.910;12.530;2023-07-30T13:12:29;17.90;1.00
1461;DHT22;724;49.910;12.530;2023-07-30T13:14:56;17.40;1.00
1461;DHT22;724;49.910;12.530;2023-07-30T13:17:24;17.20;99.90
1461;DHT22;724;49.910;12.530;2023-07-30T13:19:51;17.20;99.90
1461;DHT22;724;49.910;12.530;2023-07-30T13:22:18;17.00;99.90
1461;DHT22;724;49.910;12.530;2023-07-30T13:24:45;17.10;1.00
1461;DHT22;724;49.910;12.530;2023-07-30T13:27:11;17.50;1.00
1461;DHT22;724;49.910;12.530;2023-07-30T13:29:38;17.40;99.90
1461;DHT22;724;49.910;12.530;2023-07-30T13:32:06;17.20;99.90
1461;DHT22;724;49.910;12.530;2023-07-30T13:34:34;17.30;24.50
1461;DHT22;724;49.910;12.530;2023-07-30T13:37:00;17.20;99.90
1461;DHT22;724;49.910;12.530;2023-07-30T13:39:28;17.30;99.90
1461;DHT22;724;49.910;12.530;2023-07-30T13:41:54;17.60;99.90
1461;DHT22;724;49.910;12.530;2023-07-30T13:44:21;17.70;1.00
1461;DHT22;724;49.910;12.530;2023-07-30T13:46:48;17.80;1.00
1461;DHT22;724;49.910;12.530;2023-07-30T13:49:15;17.90;1.00
1461;DHT22;724;49.910;12.530;2023-07-30T13:51:43;18.10;1.00
1461;DHT22;724;49.910;12.530;2023-07-30T13:54:10;18.30;1.00
1461;DHT22;724;49.910;12.530;2023-07-30T13:56:37;18.60;99.90
1461;DHT22;724;49.910;12.530;2023-07-30T13:59:04;18.70;99.90
1461;DHT22;724;49.910;12.530;2023-07-30T14:01:31;18.70;13.10
1461;DHT22;724;49.910;12.530;2023-07-30T14:03:58;18.70;99.90
1461;DHT22;724;49.910;12.530;2023-07-30T14:06:24;18.70;98.50
1461;DHT22;724;49.910;12.530;2023-07-30T14:08:53;18.90;1.00
1461;DHT22;724;49.910;12.530;2023-07-30T14:11:19;19.20;1.00
1461;DHT22;724;49.910;12.530;2023-07-30T14:13:46;19.40;1.00
1461;DHT22;724;49.910;12.530;2023-07-30T14:16:13;19.40;1.00
1461;DHT22;724;49.910;12.530;2023-07-30T14:18:39;19.70;1.00
1461;DHT22;724;49.910;12.530;2023-07-30T14:21:06;19.50;99.90
1461;DHT22;724;49.910;12.530;2023-07-30T14:23:33;19.40;1.00
1461;DHT22;724;49.910;12.530;2023-07-30T14:26:01;19.80;99.90
1461;DHT22;724;49.910;12.530;2023-07-30T14:28:28;20.10;99.90
1461;DHT22;724;49.910;12.530;2023-07-30T14:30:54;19.80;99.90
1461;DHT22;724;49.910;12.530;2023-07-30T14:33:21;19.00;99.90
1461;DHT22;724;49.910;12.530;2023-07-30T14:35:48;19.30;99.90
1461;DHT22;724;49.910;12.530;2023-07-30T14:38:15;19.00;99.90
1461;DHT22;724;49.910;12.530;2023-07-30T14:40:42;18.70;99.90
1461;DHT22;724;49.910;12.530;2023-07-30T14:43:11;19.00;99.90
1461;DHT22;724;49.910;12.530;2023-07-30T14:45:37;19.00;99.90
1461;DHT22;724;49.910;12.530;2023-07-30T14:48:04;19.00;99.90
1461;DHT22;724;49.910;12.530;2023-07-30T14:50:31;19.00;63.10
1461;DHT22;724;49.910;12.530;2023-07-30T14:52:58;19.40;23.70
1461;DHT22;724;49.910;12.530;2023-07-30T14:55:25;19.60;31.30
1461;DHT22;724;49.910;12.530;2023-07-30T14:57:51;19.50;1.00
1461;DHT22;724;49.910;12.530;2023-07-30T15:00:20;19.10;7.70
1461;DHT22;724;49.910;12.530;2023-07-30T15:02:46;18.90;1.00
1461;DHT22;724;49.910;12.530;2023-07-30T15:05:13;18.50;99.90
1461;DHT22;724;49.910;12.530;2023-07-30T15:07:40;17.90;1.00
1461;DHT22;724;49.910;12.530;2023-07-30T15:10:07;17.20;1.00
1461;DHT22;724;49.910;12.530;2023-07-30T15:12:35;16.90;99.90
1461;DHT22;724;49.910;12.530;2023-07-30T15:15:01;16.90;99.90
1461;DHT22;724;49.910;12.530;2023-07-30T15:17:30;16.90;1.00
1461;DHT22;724;49.910;12.530;2023-07-30T15:19:56;17.00;99.90
1461;DHT22;724;49.910;12.530;2023-07-30T15:22:25;17.00;99.90
1461;DHT22;724;49.910;12.530;2023-07-30T15:24:52;16.90;99.90
1461;DHT22;724;49.910;12.530;2023-07-30T15:27:18;16.40;1.00
1461;DHT22;724;49.910;12.530;2023-07-30T15:29:45;16.50;1.00
1461;DHT22;724;49.910;12.530;2023-07-30T15:32:12;16.90;99.90
1461;DHT22;724;49.910;12.530;2023-07-30T15:34:40;16.70;37.90
1461;DHT22;724;49.910;12.530;2023-07-30T15:37:07;16.60;1.00
1461;DHT22;724;49.910;12.530;2023-07-30T15:39:33;16.20;99.90
1461;DHT22;724;49.910;12.530;2023-07-30T15:42:02;16.20;99.90
1461;DHT22;724;49.910;12.530;2023-07-30T15:44:29;16.40;99.90
1461;DHT22;724;49.910;12.530;2023-07-30T15:46:55;16.20;99.90
1461;DHT22;724;49.910;12.530;2023-07-30T15:49:22;16.10;99.90
1461;DHT22;724;49.910;12.530;2023-07-30T15:51:50;16.10;99.90
1461;DHT22;724;49.910;12.530;2023-07-30T15:54:17;16.90;99.90
1461;DHT22;724;49.910;12.530;2023-07-30T15:56:44;17.30;3.60
1461;DHT22;724;49.910;12.530;2023-07-30T15:59:11;17.00;1.00
1461;DHT22;724;49.910;12.530;2023-07-30T16:01:37;17.40;1.00
1461;DHT22;724;49.910;12.530;2023-07-30T16:04:04;16.90;1.00
1461;DHT22;724;49.910;12.530;2023-07-30T16:06:31;17.30;1.00
1461;DHT22;724;49.910;12.530;2023-07-30T16:08:59;17.00;1.00